Time,TemperatureF,DewpointF,PressureIn,WindDirection,WindDirectionDegrees,WindSpeedMPH,WindSpeedGustMPH,Humidity,HourlyPrecipIn,Conditions,Clouds,dailyrainin,SoftwareType,DateUTC
2013-09-14 00:00:00,51.8,48.7,29.82,NE,36,0.0,8.0,89,0.00,,,0.04,Wunderground v.1.15,2013-09-14 04:00:00,
2013-09-14 00:05:00,51.6,48.5,29.82,North,11,0.0,8.0,89,0.00,,,0.00,Wunderground v.1.15,2013-09-14 04:05:00,
2013-09-14 00:10:00,51.6,48.5,29.82,NE,55,0.0,8.0,89,0.00,,,0.00,Wunderground v.1.15,2013-09-14 04:10:00,
2013-09-14 00:15:00,51.5,48.4,29.82,ENE,70,1.0,8.0,89,0.00,,,0.00,Wunderground v.1.15,2013-09-14 04:15:00,
2013-09-14 00:25:00,51.4,48.0,29.82,NE,44,1.0,8.0,88,0.00,,,0.00,Wunderground v.1.15,2013-09-14 04:25:00,
2013-09-14 00:30:00,51.4,48.3,29.82,NNE,30,1.0,8.0,89,0.00,,,0.00,Wunderground v.1.15,2013-09-14 04:30:00,
2013-09-14 00:35:00,51.4,48.0,29.83,NE,45,0.0,8.0,88,0.00,,,0.00,Wunderground v.1.15,2013-09-14 04:35:00,
2013-09-14 00:40:00,51.4,48.0,29.83,ENE,59,1.0,1.0,88,0.00,,,0.00,Wunderground v.1.15,2013-09-14 04:40:00,
2013-09-14 00:45:00,51.4,48.0,29.83,ENE,57,1.0,2.0,88,0.00,,,0.00,Wunderground v.1.15,2013-09-14 04:45:00,
2013-09-14 00:50:00,51.4,48.0,29.83,NE,53,1.0,1.0,88,0.00,,,0.00,Wunderground v.1.15,2013-09-14 04:50:00,
2013-09-14 01:00:00,51.2,47.5,29.83,North,360,1.0,8.0,87,0.00,,,0.00,Wunderground v.1.15,2013-09-14 05:00:00,
2013-09-14 01:05:00,51.1,47.7,29.83,North,5,1.0,8.0,88,0.00,,,0.00,Wunderground v.1.15,2013-09-14 05:05:00,
2013-09-14 01:15:00,50.8,47.4,29.83,North,355,1.0,8.0,88,0.00,,,0.00,Wunderground v.1.15,2013-09-14 05:15:00,
2013-09-14 01:20:00,50.6,47.2,29.83,North,9,1.0,8.0,88,0.00,,,0.00,Wunderground v.1.15,2013-09-14 05:20:00,
2013-09-14 01:25:00,50.5,47.1,29.84,North,5,1.0,8.0,88,0.00,,,0.00,Wunderground v.1.15,2013-09-14 05:25:00,
2013-09-14 01:30:00,50.4,47.0,29.83,NNE,29,1.0,1.0,88,0.00,,,0.00,Wunderground v.1.15,2013-09-14 05:30:00,
2013-09-14 01:35:00,50.3,47.2,29.84,NNE,32,0.0,8.0,89,0.00,,,0.00,Wunderground v.1.15,2013-09-14 05:35:00,
2013-09-14 01:40:00,50.2,46.8,29.83,ENE,75,0.0,8.0,88,0.00,,,0.00,Wunderground v.1.15,2013-09-14 05:40:00,
2013-09-14 01:45:00,50.1,47.0,29.84,North,5,1.0,8.0,89,0.00,,,0.00,Wunderground v.1.15,2013-09-14 05:45:00,
2013-09-14 01:55:00,50.0,46.9,29.83,North,360,1.0,8.0,89,0.00,,,0.00,Wunderground v.1.15,2013-09-14 05:55:00,
2013-09-14 02:00:00,49.9,46.8,29.83,NNW,346,1.0,8.0,89,0.00,,,0.00,Wunderground v.1.15,2013-09-14 06:00:00,
2013-09-14 02:05:00,49.8,46.7,29.83,NNE,24,0.0,8.0,89,0.00,,,0.00,Wunderground v.1.15,2013-09-14 06:05:00,
2013-09-14 02:10:00,49.7,46.6,29.83,NE,37,1.0,1.0,89,0.00,,,0.00,Wunderground v.1.15,2013-09-14 06:10:00,
2013-09-14 02:15:00,49.6,46.8,29.83,NE,46,1.0,8.0,90,0.00,,,0.00,Wunderground v.1.15,2013-09-14 06:15:00,
2013-09-14 02:20:00,49.4,46.6,29.83,North,10,1.0,8.0,90,0.00,,,0.00,Wunderground v.1.15,2013-09-14 06:20:00,
2013-09-14 02:25:00,49.3,46.5,29.83,NE,34,1.0,8.0,90,0.00,,,0.00,Wunderground v.1.15,2013-09-14 06:25:00,
2013-09-14 02:30:00,49.2,46.4,29.83,NE,47,1.0,1.0,90,0.00,,,0.00,Wunderground v.1.15,2013-09-14 06:30:00,
2013-09-14 02:40:00,49.0,46.2,29.83,North,5,1.0,8.0,90,0.00,,,0.00,Wunderground v.1.15,2013-09-14 06:40:00,
2013-09-14 02:50:00,48.7,45.9,29.84,North,355,1.0,8.0,90,0.00,,,0.00,Wunderground v.1.15,2013-09-14 06:50:00,
2013-09-14 02:55:00,48.7,45.9,29.84,North,360,1.0,8.0,90,0.00,,,0.00,Wunderground v.1.15,2013-09-14 06:55:00,
2013-09-14 03:00:00,48.7,45.9,29.84,North,360,1.0,8.0,90,0.00,,,0.00,Wunderground v.1.15,2013-09-14 07:00:00,
2013-09-14 03:05:00,48.7,46.2,29.84,North,355,1.0,8.0,91,0.00,,,0.00,Wunderground v.1.15,2013-09-14 07:05:00,
2013-09-14 03:10:00,48.7,46.2,29.84,NE,34,1.0,8.0,91,0.00,,,0.00,Wunderground v.1.15,2013-09-14 07:10:00,
2013-09-14 03:15:00,48.6,46.1,29.84,North,10,1.0,8.0,91,0.00,,,0.00,Wunderground v.1.15,2013-09-14 07:15:00,
2013-09-14 03:20:00,48.5,46.0,29.84,NNW,345,1.0,1.0,91,0.00,,,0.00,Wunderground v.1.15,2013-09-14 07:20:00,
2013-09-14 03:25:00,48.5,46.3,29.84,NE,35,0.0,8.0,92,0.00,,,0.00,Wunderground v.1.15,2013-09-14 07:25:00,
2013-09-14 09:50:00,54.7,49.6,29.95,ENE,60,2.0,2.0,83,0.00,,,0.00,Wunderground v.1.15,2013-09-14 13:50:00,
2013-09-14 09:55:00,54.8,49.4,29.96,North,9,2.0,8.0,82,0.00,,,0.00,Wunderground v.1.15,2013-09-14 13:55:00,
2013-09-14 10:00:00,55.3,50.2,29.95,NE,49,2.0,8.0,83,0.00,,,0.00,Wunderground v.1.15,2013-09-14 14:00:00,
2013-09-14 10:05:00,55.7,50.3,29.96,North,5,2.0,8.0,82,0.00,,,0.00,Wunderground v.1.15,2013-09-14 14:05:00,
2013-09-14 10:15:00,56.9,50.8,29.96,North,360,1.0,5.0,80,0.00,,,0.00,Wunderground v.1.15,2013-09-14 14:15:00,
2013-09-14 10:20:00,57.3,50.5,29.96,ENE,59,1.0,8.0,78,0.00,,,0.00,Wunderground v.1.15,2013-09-14 14:20:00,
2013-09-14 10:25:00,57.5,51.0,29.96,NNE,23,1.0,8.0,79,0.00,,,0.00,Wunderground v.1.15,2013-09-14 14:25:00,
2013-09-14 10:30:00,57.8,52.0,29.96,NE,35,1.0,1.0,81,0.00,,,0.00,Wunderground v.1.15,2013-09-14 14:30:00,
2013-09-14 10:40:00,57.7,50.5,29.95,NE,47,2.0,8.0,77,0.00,,,0.00,Wunderground v.1.15,2013-09-14 14:40:00,
2013-09-14 10:45:00,57.7,51.2,29.96,North,9,3.0,8.0,79,0.00,,,0.00,Wunderground v.1.15,2013-09-14 14:45:00,
2013-09-14 10:50:00,58.1,49.9,29.96,North,355,3.0,8.0,74,0.00,,,0.00,Wunderground v.1.15,2013-09-14 14:50:00,
2013-09-14 10:55:00,58.2,51.0,29.96,North,355,2.0,8.0,77,0.00,,,0.00,Wunderground v.1.15,2013-09-14 14:55:00,
2013-09-14 11:00:00,57.9,50.7,29.96,NE,46,2.0,8.0,77,0.00,,,0.00,Wunderground v.1.15,2013-09-14 15:00:00,
2013-09-14 11:05:00,58.4,51.2,29.96,NE,44,2.0,8.0,77,0.00,,,0.00,Wunderground v.1.15,2013-09-14 15:05:00,
2013-09-14 11:10:00,58.9,51.0,29.97,NNE,27,2.0,8.0,75,0.00,,,0.00,Wunderground v.1.15,2013-09-14 15:10:00,
2013-09-14 11:15:00,59.4,51.5,29.97,North,350,2.0,8.0,75,0.00,,,0.00,Wunderground v.1.15,2013-09-14 15:15:00,
2013-09-14 11:20:00,59.3,50.3,29.97,ESE,110,2.0,8.0,72,0.00,,,0.00,Wunderground v.1.15,2013-09-14 15:20:00,
2013-09-14 11:30:00,59.5,51.9,29.97,North,5,2.0,2.0,76,0.00,,,0.00,Wunderground v.1.15,2013-09-14 15:30:00,
2013-09-14 11:35:00,59.9,52.0,29.97,North,5,1.0,8.0,75,0.00,,,0.00,Wunderground v.1.15,2013-09-14 15:35:00,
2013-09-14 11:40:00,59.9,52.3,29.97,NNE,13,1.0,1.0,76,0.00,,,0.00,Wunderground v.1.15,2013-09-14 15:40:00,
2013-09-14 11:45:00,59.9,51.2,29.97,North,360,1.0,8.0,73,0.00,,,0.00,Wunderground v.1.15,2013-09-14 15:45:00,
2013-09-14 11:50:00,60.0,51.7,29.97,NNE,20,2.0,8.0,74,0.00,,,0.00,Wunderground v.1.15,2013-09-14 15:50:00,
2013-09-14 11:55:00,60.3,50.5,29.97,NNW,343,2.0,8.0,70,0.00,,,0.00,Wunderground v.1.15,2013-09-14 15:55:00,
2013-09-14 12:00:00,60.2,51.9,29.97,NE,51,2.0,2.0,74,0.00,,,0.00,Wunderground v.1.15,2013-09-14 16:00:00,
2013-09-14 12:10:00,60.7,52.7,29.97,NNE,22,2.0,8.0,75,0.00,,,0.00,Wunderground v.1.15,2013-09-14 16:10:00,
2013-09-14 12:20:00,60.7,50.9,29.97,North,9,2.0,2.0,70,0.00,,,0.00,Wunderground v.1.15,2013-09-14 16:20:00,
2013-09-14 12:30:00,60.8,52.5,29.97,NE,42,1.0,8.0,74,0.00,,,0.00,Wunderground v.1.15,2013-09-14 16:30:00,
2013-09-14 12:35:00,60.5,51.8,29.97,ENE,63,1.0,8.0,73,0.00,,,0.00,Wunderground v.1.15,2013-09-14 16:35:00,
2013-09-14 12:40:00,60.2,50.4,29.98,NNE,16,1.0,8.0,70,0.00,,,0.00,Wunderground v.1.15,2013-09-14 16:40:00,
2013-09-14 12:45:00,60.4,51.0,29.98,NNE,15,2.0,8.0,71,0.00,,,0.00,Wunderground v.1.15,2013-09-14 16:45:00,
2013-09-14 12:50:00,60.6,51.5,29.97,ENE,78,1.0,8.0,72,0.00,,,0.00,Wunderground v.1.15,2013-09-14 16:50:00,
2013-09-14 12:55:00,61.0,51.1,29.97,East,98,1.0,8.0,70,0.00,,,0.00,Wunderground v.1.15,2013-09-14 16:55:00,
2013-09-14 13:00:00,61.2,52.1,29.97,NNW,338,1.0,1.0,72,0.00,,,0.00,Wunderground v.1.15,2013-09-14 17:00:00,
2013-09-14 13:05:00,61.5,52.4,29.97,NE,50,1.0,8.0,72,0.00,,,0.00,Wunderground v.1.15,2013-09-14 17:05:00,
2013-09-14 13:15:00,61.4,52.7,29.97,NE,41,1.0,8.0,73,0.00,,,0.00,Wunderground v.1.15,2013-09-14 17:15:00,
2013-09-14 13:20:00,61.0,51.5,29.97,North,360,2.0,8.0,71,0.00,,,0.00,Wunderground v.1.15,2013-09-14 17:20:00,
2013-09-14 13:25:00,60.7,52.4,29.97,NE,42,2.0,8.0,74,0.00,,,0.00,Wunderground v.1.15,2013-09-14 17:25:00,
2013-09-14 13:30:00,60.6,52.3,29.97,NE,53,1.0,8.0,74,0.00,,,0.00,Wunderground v.1.15,2013-09-14 17:30:00,
2013-09-14 13:35:00,60.7,51.2,29.97,ENE,59,2.0,8.0,71,0.00,,,0.00,Wunderground v.1.15,2013-09-14 17:35:00,
2013-09-14 13:40:00,60.6,52.3,29.97,NE,53,2.0,8.0,74,0.00,,,0.00,Wunderground v.1.15,2013-09-14 17:40:00,
2013-09-14 13:45:00,60.7,52.4,29.97,NE,39,2.0,8.0,74,0.00,,,0.00,Wunderground v.1.15,2013-09-14 17:45:00,
2013-09-14 13:55:00,60.5,53.3,29.97,ENE,67,1.0,8.0,77,0.00,,,0.00,Wunderground v.1.15,2013-09-14 17:55:00,
2013-09-14 14:00:00,60.8,52.5,29.97,NE,54,1.0,1.0,74,0.00,,,0.00,Wunderground v.1.15,2013-09-14 18:00:00,
2013-09-14 14:05:00,60.7,52.0,29.97,NNE,19,2.0,2.0,73,0.00,,,0.00,Wunderground v.1.15,2013-09-14 18:05:00,
2013-09-14 14:10:00,60.8,51.3,29.97,NE,46,1.0,8.0,71,0.00,,,0.00,Wunderground v.1.15,2013-09-14 18:10:00,
2013-09-14 14:20:00,60.0,51.3,29.97,NNE,19,1.0,8.0,73,0.00,,,0.00,Wunderground v.1.15,2013-09-14 18:20:00,
2013-09-14 14:25:00,59.7,51.0,29.98,NE,43,1.0,8.0,73,0.00,,,0.00,Wunderground v.1.15,2013-09-14 18:25:00,
2013-09-14 14:35:00,59.4,50.7,29.98,North,355,1.0,8.0,73,0.00,,,0.00,Wunderground v.1.15,2013-09-14 18:35:00,
2013-09-14 14:40:00,59.1,50.8,29.98,NE,40,1.0,1.0,74,0.00,,,0.00,Wunderground v.1.15,2013-09-14 18:40:00,
2013-09-14 14:45:00,59.4,51.1,29.98,NE,50,1.0,3.0,74,0.00,,,0.00,Wunderground v.1.15,2013-09-14 18:45:00,
2013-09-14 14:50:00,59.7,51.8,29.98,NE,53,2.0,8.0,75,0.00,,,0.00,Wunderground v.1.15,2013-09-14 18:50:00,
2013-09-14 14:55:00,59.9,51.2,29.98,East,82,2.0,8.0,73,0.00,,,0.00,Wunderground v.1.15,2013-09-14 18:55:00,
2013-09-14 15:00:00,59.9,51.6,29.98,NE,39,2.0,2.0,74,0.00,,,0.00,Wunderground v.1.15,2013-09-14 19:00:00,
2013-09-14 15:05:00,59.6,50.9,29.98,North,355,1.0,8.0,73,0.00,,,0.00,Wunderground v.1.15,2013-09-14 19:05:00,
2013-09-14 15:10:00,59.7,51.0,29.98,North,355,1.0,8.0,73,0.00,,,0.00,Wunderground v.1.15,2013-09-14 19:10:00,
2013-09-14 15:15:00,60.1,50.7,29.98,NNE,17,1.0,8.0,71,0.00,,,0.00,Wunderground v.1.15,2013-09-14 19:15:00,
2013-09-14 15:25:00,60.6,52.3,29.98,NNE,17,1.0,8.0,74,0.00,,,0.00,Wunderground v.1.15,2013-09-14 19:25:00,
2013-09-14 15:30:00,61.1,52.7,29.98,NE,46,0.0,8.0,74,0.00,,,0.00,Wunderground v.1.15,2013-09-14 19:30:00,
2013-09-14 15:35:00,61.2,51.7,29.99,ENE,68,1.0,8.0,71,0.00,,,0.00,Wunderground v.1.15,2013-09-14 19:35:00,
2013-09-14 15:40:00,61.1,51.2,29.99,North,11,1.0,1.0,70,0.00,,,0.00,Wunderground v.1.15,2013-09-14 19:40:00,
2013-09-14 15:45:00,61.0,51.5,29.99,NE,51,1.0,2.0,71,0.00,,,0.00,Wunderground v.1.15,2013-09-14 19:45:00,
2013-09-14 15:50:00,60.5,51.4,29.99,ENE,72,1.0,1.0,72,0.00,,,0.00,Wunderground v.1.15,2013-09-14 19:50:00,
2013-09-14 15:55:00,60.1,51.0,29.99,ENE,65,1.0,3.0,72,0.00,,,0.00,Wunderground v.1.15,2013-09-14 19:55:00,
2013-09-14 16:00:00,59.5,50.5,29.99,North,5,1.0,8.0,72,0.00,,,0.00,Wunderground v.1.15,2013-09-14 20:00:00,
2013-09-14 16:10:00,59.0,50.7,29.99,North,360,1.0,1.0,74,0.00,,,0.00,Wunderground v.1.15,2013-09-14 20:10:00,
2013-09-14 16:15:00,59.1,51.2,29.99,ENE,70,0.0,8.0,75,0.00,,,0.00,Wunderground v.1.15,2013-09-14 20:15:00,
2013-09-14 16:20:00,59.2,50.9,29.99,NE,52,0.0,8.0,74,0.00,,,0.00,Wunderground v.1.15,2013-09-14 20:20:00,
2013-09-14 16:25:00,59.2,51.3,29.99,ENE,63,0.0,8.0,75,0.00,,,0.00,Wunderground v.1.15,2013-09-14 20:25:00,
2013-09-14 16:35:00,59.0,51.1,30.00,NNW,346,0.0,8.0,75,0.00,,,0.00,Wunderground v.1.15,2013-09-14 20:35:00,
2013-09-14 16:40:00,59.0,51.8,30.00,NNE,28,0.0,8.0,77,0.00,,,0.00,Wunderground v.1.15,2013-09-14 20:40:00,
2013-09-14 16:45:00,58.8,50.9,30.00,NE,55,0.0,8.0,75,0.00,,,0.00,Wunderground v.1.15,2013-09-14 20:45:00,
2013-09-14 16:50:00,58.7,51.2,30.00,NE,55,0.0,8.0,76,0.00,,,0.00,Wunderground v.1.15,2013-09-14 20:50:00,
2013-09-14 17:00:00,58.8,52.0,30.00,NE,55,0.0,8.0,78,0.00,,,0.00,Wunderground v.1.15,2013-09-14 21:00:00,
2013-09-14 17:05:00,58.8,51.2,30.00,NE,55,0.0,8.0,76,0.00,,,0.00,Wunderground v.1.15,2013-09-14 21:05:00,
2013-09-14 17:10:00,58.7,51.2,30.01,ENE,64,0.0,8.0,76,0.00,,,0.00,Wunderground v.1.15,2013-09-14 21:10:00,
2013-09-14 17:15:00,58.5,51.7,30.01,NE,34,0.0,8.0,78,0.00,,,0.00,Wunderground v.1.15,2013-09-14 21:15:00,
2013-09-14 17:20:00,58.4,50.9,30.01,NNE,32,0.0,8.0,76,0.00,,,0.00,Wunderground v.1.15,2013-09-14 21:20:00,
2013-09-14 17:25:00,58.2,50.7,30.01,NE,51,0.0,8.0,76,0.00,,,0.00,Wunderground v.1.15,2013-09-14 21:25:00,
2013-09-14 17:30:00,57.9,50.7,30.02,NNE,26,0.0,8.0,77,0.00,,,0.00,Wunderground v.1.15,2013-09-14 21:30:00,
2013-09-14 17:40:00,57.1,50.6,30.02,North,351,0.0,8.0,79,0.00,,,0.00,Wunderground v.1.15,2013-09-14 21:40:00,
2013-09-14 17:45:00,56.8,50.7,30.02,North,11,0.0,8.0,80,0.00,,,0.00,Wunderground v.1.15,2013-09-14 21:45:00,
2013-09-14 17:50:00,56.6,50.8,30.02,NNE,15,0.0,8.0,81,0.00,,,0.00,Wunderground v.1.15,2013-09-14 21:50:00,
2013-09-14 17:55:00,56.4,51.0,30.03,NNE,30,0.0,8.0,82,0.00,,,0.00,Wunderground v.1.15,2013-09-14 21:55:00,
2013-09-14 18:00:00,56.2,51.1,30.03,NNE,30,0.0,8.0,83,0.00,,,0.00,Wunderground v.1.15,2013-09-14 22:00:00,
2013-09-14 18:05:00,56.1,51.0,30.03,NNE,30,0.0,8.0,83,0.00,,,0.00,Wunderground v.1.15,2013-09-14 22:05:00,
2013-09-14 18:10:00,55.9,50.2,30.03,North,355,0.0,8.0,81,0.00,,,0.00,Wunderground v.1.15,2013-09-14 22:10:00,
2013-09-14 18:15:00,55.9,51.1,30.03,North,355,0.0,8.0,84,0.00,,,0.00,Wunderground v.1.15,2013-09-14 22:15:00,
2013-09-14 18:20:00,55.8,50.4,30.03,North,355,0.0,8.0,82,0.00,,,0.00,Wunderground v.1.15,2013-09-14 22:20:00,
2013-09-14 18:30:00,55.7,50.9,30.03,North,355,0.0,8.0,84,0.00,,,0.00,Wunderground v.1.15,2013-09-14 22:30:00,
2013-09-14 18:35:00,55.5,50.7,30.03,North,355,0.0,8.0,84,0.00,,,0.00,Wunderground v.1.15,2013-09-14 22:35:00,
2013-09-14 18:40:00,55.3,50.5,30.03,North,355,0.0,8.0,84,0.00,,,0.00,Wunderground v.1.15,2013-09-14 22:40:00,
2013-09-14 18:45:00,55.1,50.7,30.04,North,355,0.0,8.0,85,0.00,,,0.00,Wunderground v.1.15,2013-09-14 22:45:00,
2013-09-14 18:50:00,54.9,50.8,30.04,North,355,0.0,8.0,86,0.00,,,0.00,Wunderground v.1.15,2013-09-14 22:50:00,
2013-09-14 18:55:00,54.6,50.5,30.04,North,355,0.0,8.0,86,0.00,,,0.00,Wunderground v.1.15,2013-09-14 22:55:00,
2013-09-14 19:00:00,54.1,50.3,30.04,North,355,0.0,8.0,87,0.00,,,0.00,Wunderground v.1.15,2013-09-14 23:00:00,
2013-09-14 19:10:00,53.4,50.2,30.04,North,355,0.0,8.0,89,0.00,,,0.00,Wunderground v.1.15,2013-09-14 23:10:00,
2013-09-14 19:15:00,53.0,50.1,30.04,North,355,0.0,8.0,90,0.00,,,0.00,Wunderground v.1.15,2013-09-14 23:15:00,
2013-09-14 19:20:00,52.6,49.8,30.05,North,355,0.0,8.0,90,0.00,,,0.00,Wunderground v.1.15,2013-09-14 23:20:00,
2013-09-14 19:30:00,52.0,49.5,30.05,North,355,0.0,8.0,91,0.00,,,0.00,Wunderground v.1.15,2013-09-14 23:30:00,
2013-09-14 19:35:00,51.7,49.2,30.05,North,355,0.0,8.0,91,0.00,,,0.00,Wunderground v.1.15,2013-09-14 23:35:00,
2013-09-14 19:40:00,51.4,48.9,30.05,North,355,0.0,8.0,91,0.00,,,0.00,Wunderground v.1.15,2013-09-14 23:40:00,
2013-09-14 19:45:00,51.1,48.9,30.06,North,355,0.0,8.0,92,0.00,,,0.00,Wunderground v.1.15,2013-09-14 23:45:00,
2013-09-14 19:50:00,50.8,48.8,30.06,North,355,0.0,8.0,93,0.00,,,0.00,Wunderground v.1.15,2013-09-14 23:50:00,
2013-09-14 19:55:00,50.6,48.7,30.06,North,355,0.0,8.0,93,0.00,,,0.00,Wunderground v.1.15,2013-09-14 23:55:00,
2013-09-14 20:00:00,50.4,48.7,30.06,North,355,0.0,8.0,94,0.00,,,0.00,Wunderground v.1.15,2013-09-15 00:00:00,
2013-09-14 20:05:00,50.2,48.5,30.07,North,355,0.0,8.0,94,0.00,,,0.00,Wunderground v.1.15,2013-09-15 00:05:00,
2013-09-14 20:15:00,49.8,48.4,30.07,North,355,0.0,8.0,95,0.00,,,0.00,Wunderground v.1.15,2013-09-15 00:15:00,
2013-09-14 20:20:00,49.7,48.3,30.07,North,355,0.0,8.0,95,0.00,,,0.00,Wunderground v.1.15,2013-09-15 00:20:00,
2013-09-14 20:25:00,49.4,48.0,30.07,North,355,0.0,8.0,95,0.00,,,0.00,Wunderground v.1.15,2013-09-15 00:25:00,
2013-09-14 20:30:00,49.3,48.2,30.07,North,355,0.0,8.0,96,0.00,,,0.00,Wunderground v.1.15,2013-09-15 00:30:00,
2013-09-14 20:35:00,49.1,48.0,30.07,North,355,0.0,8.0,96,0.00,,,0.00,Wunderground v.1.15,2013-09-15 00:35:00,
2013-09-14 20:40:00,49.0,47.9,30.07,North,355,0.0,8.0,96,0.00,,,0.00,Wunderground v.1.15,2013-09-15 00:40:00,
2013-09-14 20:45:00,49.0,47.9,30.08,North,355,0.0,8.0,96,0.00,,,0.00,Wunderground v.1.15,2013-09-15 00:45:00,
2013-09-14 20:55:00,48.8,48.0,30.08,North,355,0.0,8.0,97,0.00,,,0.00,Wunderground v.1.15,2013-09-15 00:55:00,
2013-09-14 21:00:00,48.7,47.6,30.08,North,355,0.0,8.0,96,0.00,,,0.00,Wunderground v.1.15,2013-09-15 01:00:00,
2013-09-14 21:05:00,48.5,47.7,30.08,North,355,0.0,8.0,97,0.00,,,0.00,Wunderground v.1.15,2013-09-15 01:05:00,
2013-09-14 21:10:00,48.4,47.6,30.08,North,355,0.0,8.0,97,0.00,,,0.00,Wunderground v.1.15,2013-09-15 01:10:00,
2013-09-14 21:15:00,48.3,47.5,30.08,North,355,0.0,8.0,97,0.00,,,0.00,Wunderground v.1.15,2013-09-15 01:15:00,
2013-09-14 21:20:00,48.3,47.5,30.09,North,355,0.0,8.0,97,0.00,,,0.00,Wunderground v.1.15,2013-09-15 01:20:00,
2013-09-14 21:25:00,48.2,47.4,30.08,North,355,0.0,8.0,97,0.00,,,0.00,Wunderground v.1.15,2013-09-15 01:25:00,
2013-09-14 21:35:00,48.3,47.5,30.09,North,355,0.0,8.0,97,0.00,,,0.00,Wunderground v.1.15,2013-09-15 01:35:00,
2013-09-14 21:40:00,48.3,47.8,30.09,North,355,0.0,8.0,98,0.00,,,0.00,Wunderground v.1.15,2013-09-15 01:40:00,
2013-09-14 21:45:00,48.3,47.8,30.09,North,355,0.0,8.0,98,0.00,,,0.00,Wunderground v.1.15,2013-09-15 01:45:00,
2013-09-14 21:50:00,48.4,47.6,30.09,North,355,0.0,8.0,97,0.00,,,0.00,Wunderground v.1.15,2013-09-15 01:50:00,
2013-09-14 21:55:00,48.4,47.9,30.09,North,355,0.0,8.0,98,0.00,,,0.00,Wunderground v.1.15,2013-09-15 01:55:00,
2013-09-14 22:00:00,48.4,47.6,30.09,North,355,0.0,8.0,97,0.00,,,0.00,Wunderground v.1.15,2013-09-15 02:00:00,
2013-09-14 22:05:00,48.4,47.6,30.09,North,355,0.0,8.0,97,0.00,,,0.00,Wunderground v.1.15,2013-09-15 02:05:00,
2013-09-14 22:10:00,48.3,47.5,30.09,North,355,0.0,8.0,97,0.00,,,0.00,Wunderground v.1.15,2013-09-15 02:10:00,
2013-09-14 22:15:00,48.3,47.5,30.09,North,355,0.0,8.0,97,0.00,,,0.00,Wunderground v.1.15,2013-09-15 02:15:00,
2013-09-14 22:25:00,48.1,47.3,30.09,North,355,0.0,8.0,97,0.00,,,0.00,Wunderground v.1.15,2013-09-15 02:25:00,
2013-09-14 22:30:00,48.1,47.3,30.09,North,355,0.0,8.0,97,0.00,,,0.00,Wunderground v.1.15,2013-09-15 02:30:00,
2013-09-14 22:35:00,48.0,47.2,30.09,North,355,0.0,8.0,97,0.00,,,0.00,Wunderground v.1.15,2013-09-15 02:35:00,
2013-09-14 22:40:00,47.9,47.1,30.09,North,355,0.0,8.0,97,0.00,,,0.00,Wunderground v.1.15,2013-09-15 02:40:00,
2013-09-14 22:45:00,47.9,47.1,30.09,North,355,0.0,8.0,97,0.00,,,0.00,Wunderground v.1.15,2013-09-15 02:45:00,
2013-09-14 22:55:00,47.9,47.1,30.10,North,355,0.0,8.0,97,0.00,,,0.00,Wunderground v.1.15,2013-09-15 02:55:00,
2013-09-14 23:00:00,47.9,47.1,30.10,North,355,0.0,8.0,97,0.00,,,0.00,Wunderground v.1.15,2013-09-15 03:00:00,
2013-09-14 23:05:00,47.9,47.1,30.10,North,355,0.0,8.0,97,0.00,,,0.00,Wunderground v.1.15,2013-09-15 03:05:00,
2013-09-14 23:20:00,47.8,46.7,30.10,North,355,0.0,8.0,96,0.00,,,0.00,Wunderground v.1.15,2013-09-15 03:20:00,
2013-09-14 23:30:00,47.8,46.7,30.10,North,355,0.0,8.0,96,0.00,,,0.00,Wunderground v.1.15,2013-09-15 03:30:00,
2013-09-14 23:40:00,47.8,46.7,30.11,North,355,0.0,8.0,96,0.00,,,0.00,Wunderground v.1.15,2013-09-15 03:40:00,
2013-09-14 23:45:00,47.8,46.7,30.10,North,355,0.0,8.0,96,0.00,,,0.00,Wunderground v.1.15,2013-09-15 03:45:00,
2013-09-14 23:50:00,47.8,46.4,30.11,North,355,0.0,8.0,95,0.00,,,0.00,Wunderground v.1.15,2013-09-15 03:50:00,
2013-09-14 23:55:00,47.8,46.4,30.11,North,355,0.0,8.0,95,0.00,,,0.00,Wunderground v.1.15,2013-09-15 03:55:00,